Time;durP1;ratioP1;P1;durP2;ratioP2;P2;SDS_P1;SDS_P2;PMS_P1;PMS_P2;Temp;Humidity;BMP_temperature;BMP_pressure;BME280_temperature;BME280_humidity;BME280_pressure;Samples;Min_cycle;Max_cycle;Signal;HPM_P1;HPM_P2
2023/03/04 00:00:10;;;;;;;1.77;1.00;;;6.30;99.90;;;;;;5003452;28;20682;-80
2023/03/04 00:02:36;;;;;;;2.22;0.95;;;6.20;99.90;;;;;;4999133;28;20053;-80
2023/03/04 00:05:04;;;;;;;4.10;0.98;;;6.20;99.90;;;;;;4983183;28;20163;-80
2023/03/04 00:07:30;;;;;;;2.15;0.90;;;6.20;99.90;;;;;;4994445;28;20045;-80
2023/03/04 00:09:58;;;;;;;0.80;0.45;;;6.20;99.90;;;;;;5003257;28;20059;-81
2023/03/04 00:12:24;;;;;;;2.10;0.90;;;6.20;99.90;;;;;;4998672;28;20061;-80
2023/03/04 00:14:51;;;;;;;2.22;0.80;;;6.20;99.90;;;;;;4983756;28;20486;-81
2023/03/04 00:17:18;;;;;;;1.23;0.60;;;6.20;99.90;;;;;;5000513;28;20056;-81
2023/03/04 00:19:45;;;;;;;2.22;0.90;;;6.20;99.90;;;;;;5013241;28;20049;-81
2023/03/04 00:22:12;;;;;;;2.58;1.00;;;6.20;99.90;;;;;;4998717;28;20259;-80
2023/03/04 00:24:39;;;;;;;0.85;0.50;;;6.20;99.90;;;;;;4982706;28;20069;-80
2023/03/04 00:27:06;;;;;;;2.60;0.68;;;6.20;99.90;;;;;;4998523;28;20049;-80
2023/03/04 00:29:32;;;;;;;2.45;0.70;;;6.20;99.90;;;;;;4986146;28;20241;-81
2023/03/04 00:31:59;;;;;;;1.42;0.60;;;6.20;99.90;;;;;;4986931;28;20077;-80
2023/03/04 00:34:26;;;;;;;1.55;0.68;;;6.20;99.90;;;;;;4998090;28;20197;-80
2023/03/04 00:36:56;;;;;;;1.63;0.82;;;6.20;99.90;;;;;;4999026;28;20053;-83
2023/03/04 00:39:23;;;;;;;0.60;0.57;;;6.20;99.90;;;;;;5006614;28;20054;-80
2023/03/04 00:41:50;;;;;;;1.75;1.25;;;6.20;99.90;;;;;;4998833;28;20080;-80
2023/03/04 00:44:17;;;;;;;1.25;0.82;;;6.10;99.90;;;;;;4978921;28;20046;-80
2023/03/04 00:46:44;;;;;;;1.92;0.60;;;6.10;99.90;;;;;;4978309;28;20120;-80
2023/03/04 00:49:11;;;;;;;1.17;0.70;;;6.10;99.90;;;;;;5001520;28;20053;-81
2023/03/04 00:51:38;;;;;;;1.05;0.70;;;6.10;99.90;;;;;;4981942;28;20054;-80
2023/03/04 00:54:05;;;;;;;1.02;0.50;;;6.20;99.90;;;;;;4982181;28;20046;-81
2023/03/04 00:56:32;;;;;;;1.95;0.73;;;6.20;99.90;;;;;;4995127;28;20740;-81
2023/03/04 00:58:59;;;;;;;2.00;0.70;;;6.10;99.90;;;;;;5006151;28;20199;-81
2023/03/04 01:01:26;;;;;;;1.17;0.60;;;6.10;99.90;;;;;;4995402;28;20592;-81
2023/03/04 01:03:52;;;;;;;2.80;0.95;;;6.10;99.90;;;;;;4978858;28;20054;-81
2023/03/04 01:06:19;;;;;;;2.47;0.98;;;6.10;99.90;;;;;;4988079;28;20137;-81
2023/03/04 01:08:46;;;;;;;1.35;0.80;;;6.10;99.90;;;;;;4983215;28;20045;-81
2023/03/04 01:11:13;;;;;;;1.10;0.52;;;6.10;99.90;;;;;;4984078;28;20061;-81
2023/03/04 01:13:40;;;;;;;1.05;0.50;;;6.10;99.90;;;;;;4979133;28;20417;-81
2023/03/04 01:16:08;;;;;;;1.23;0.80;;;6.10;99.90;;;;;;4999565;28;20529;-81
2023/03/04 01:18:35;;;;;;;1.13;0.50;;;6.10;99.90;;;;;;4985285;28;20780;-81
2023/03/04 01:21:03;;;;;;;1.55;0.80;;;6.10;99.90;;;;;;4987642;28;20489;-81
2023/03/04 01:23:30;;;;;;;2.15;0.70;;;6.00;99.90;;;;;;4981779;28;20076;-81
2023/03/04 01:25:57;;;;;;;1.63;0.90;;;6.00;99.90;;;;;;4993540;28;20609;-81
2023/03/04 01:28:24;;;;;;;1.85;0.70;;;6.00;99.90;;;;;;4986156;28;20229;-81
2023/03/04 01:30:51;;;;;;;1.58;0.70;;;6.00;99.90;;;;;;4978627;28;20057;-81
2023/03/04 01:33:18;;;;;;;2.45;1.08;;;6.00;99.90;;;;;;4961960;28;20050;-81
2023/03/04 01:35:44;;;;;;;2.47;0.70;;;6.00;99.90;;;;;;4966490;28;20484;-81
2023/03/04 01:38:12;;;;;;;2.60;0.60;;;6.00;99.90;;;;;;4985556;28;20430;-81
2023/03/04 01:40:38;;;;;;;1.02;0.57;;;6.00;99.90;;;;;;4979637;28;20490;-81
2023/03/04 01:43:05;;;;;;;1.88;0.73;;;6.00;99.90;;;;;;4962286;28;20113;-81
2023/03/04 01:45:32;;;;;;;5.00;1.45;;;5.90;99.90;;;;;;4972557;28;20056;-81
2023/03/04 01:47:59;;;;;;;1.95;0.90;;;6.00;99.90;;;;;;4983233;28;20489;-81
2023/03/04 01:50:29;;;;;;;2.58;0.90;;;5.90;99.90;;;;;;4962870;28;20053;-81
2023/03/04 01:52:56;;;;;;;2.22;0.90;;;5.90;99.90;;;;;;4959234;28;20375;-82
2023/03/04 01:55:23;;;;;;;3.13;1.00;;;6.00;99.90;;;;;;4968622;28;20561;-81
2023/03/04 01:57:51;;;;;;;3.00;1.02;;;5.90;99.90;;;;;;4965846;28;20488;-81
2023/03/04 02:00:25;;;;;;;1.92;0.85;;;6.00;99.90;;;;;;4959745;28;20362;-81
2023/03/04 02:02:54;;;;;;;2.00;0.80;;;5.90;99.90;;;;;;4961820;28;20147;-81
2023/03/04 02:05:21;;;;;;;1.33;0.70;;;5.90;99.90;;;;;;4981846;28;20081;-81
2023/03/04 02:07:49;;;;;;;1.33;0.73;;;5.90;99.90;;;;;;4980955;28;20137;-81
2023/03/04 02:10:16;;;;;;;2.25;0.80;;;6.00;99.90;;;;;;4965947;28;20393;-81
2023/03/04 02:12:43;;;;;;;2.03;0.70;;;5.90;99.90;;;;;;4977072;28;20047;-81
2023/03/04 02:15:10;;;;;;;1.30;0.63;;;5.90;99.90;;;;;;4965831;28;20133;-81
2023/03/04 02:17:37;;;;;;;0.95;0.50;;;6.00;99.90;;;;;;4968783;28;20057;-81
2023/03/04 02:20:12;;;;;;;1.25;0.70;;;6.00;99.90;;;;;;4964969;28;20050;-80
2023/03/04 02:22:42;;;;;;;1.20;0.50;;;6.00;99.90;;;;;;4962235;28;20050;-81
2023/03/04 02:25:12;;;;;;;2.40;0.68;;;6.00;99.90;;;;;;4983976;28;20166;-81
2023/03/04 02:27:38;;;;;;;1.05;0.60;;;6.00;99.90;;;;;;4983648;28;20293;-81
2023/03/04 02:30:06;;;;;;;1.50;0.60;;;6.00;99.90;;;;;;4995384;28;20061;-81
2023/03/04 02:32:33;;;;;;;1.08;0.63;;;5.90;99.90;;;;;;4615087;28;10000426;-81
2023/03/04 02:34:59;;;;;;;1.58;0.75;;;6.00;99.90;;;;;;4962085;28;20047;-81
2023/03/04 02:37:26;;;;;;;3.13;0.77;;;6.00;99.90;;;;;;4966934;28;21763;-81
2023/03/04 02:39:53;;;;;;;1.20;0.68;;;5.90;99.90;;;;;;4967574;28;20077;-81
2023/03/04 02:42:20;;;;;;;0.57;0.40;;;5.90;99.90;;;;;;4955140;28;20386;-80
2023/03/04 02:44:49;;;;;;;1.30;0.55;;;5.90;99.90;;;;;;4950769;28;20588;-81
2023/03/04 02:47:17;;;;;;;1.27;0.55;;;5.90;99.90;;;;;;4966336;28;20077;-80
2023/03/04 02:49:43;;;;;;;0.70;0.57;;;5.90;99.90;;;;;;4974188;28;20494;-80
2023/03/04 02:52:18;;;;;;;2.83;0.88;;;5.90;99.90;;;;;;4969677;28;20054;-80
2023/03/04 02:54:45;;;;;;;0.52;0.45;;;5.90;99.90;;;;;;4999476;28;20445;-81
2023/03/04 02:57:12;;;;;;;1.40;0.60;;;5.90;99.90;;;;;;4987996;28;20607;-80
2023/03/04 02:59:39;;;;;;;2.42;0.80;;;5.90;99.90;;;;;;4980228;28;20145;-83
2023/03/04 03:02:06;;;;;;;1.65;0.65;;;5.90;99.90;;;;;;4989563;28;20041;-82
2023/03/04 03:04:35;;;;;;;0.90;0.60;;;5.90;99.90;;;;;;5004011;28;20069;-82
2023/03/04 03:07:02;;;;;;;2.53;1.00;;;5.90;99.90;;;;;;4986004;28;20061;-82
2023/03/04 03:09:28;;;;;;;3.83;0.77;;;5.90;99.90;;;;;;4983574;28;20634;-80
2023/03/04 03:11:55;;;;;;;1.25;0.70;;;5.80;99.90;;;;;;4981986;28;20140;-82
2023/03/04 03:14:22;;;;;;;0.90;0.70;;;5.90;99.90;;;;;;4980016;28;20650;-80
2023/03/04 03:16:49;;;;;;;1.88;0.70;;;5.90;99.90;;;;;;4986128;28;20141;-80
2023/03/04 03:19:16;;;;;;;0.98;0.57;;;5.90;99.90;;;;;;4994310;28;20081;-80
2023/03/04 03:21:43;;;;;;;1.55;0.60;;;5.90;99.90;;;;;;4974782;28;20061;-80
2023/03/04 03:24:09;;;;;;;1.73;0.88;;;5.90;99.90;;;;;;4973122;28;20057;-80
2023/03/04 03:26:38;;;;;;;1.17;0.68;;;5.90;99.90;;;;;;4985822;28;20133;-80
2023/03/04 03:29:05;;;;;;;1.52;0.47;;;6.00;99.90;;;;;;4986716;28;20132;-80
2023/03/04 03:31:32;;;;;;;1.05;0.73;;;6.00;99.90;;;;;;4989306;28;20061;-81
2023/03/04 03:33:59;;;;;;;2.42;1.10;;;6.00;99.90;;;;;;4976854;28;20057;-80
2023/03/04 03:36:26;;;;;;;0.80;0.45;;;5.90;99.90;;;;;;4976417;28;20124;-80
2023/03/04 03:38:53;;;;;;;1.20;0.50;;;5.90;99.90;;;;;;4990107;28;20060;-80
2023/03/04 03:41:21;;;;;;;0.95;0.30;;;5.90;99.90;;;;;;4997873;28;20044;-80
2023/03/04 03:43:47;;;;;;;4.47;0.95;;;5.90;99.90;;;;;;4996579;28;20052;-80
2023/03/04 03:46:14;;;;;;;0.75;0.60;;;5.80;99.90;;;;;;4996967;28;20507;-81
2023/03/04 03:48:41;;;;;;;1.20;0.65;;;5.80;99.90;;;;;;4984450;28;20145;-80
2023/03/04 03:51:08;;;;;;;1.33;0.73;;;5.80;99.90;;;;;;4996417;28;20049;-80
2023/03/04 03:53:35;;;;;;;2.13;0.75;;;5.80;99.90;;;;;;5013165;28;20189;-80
2023/03/04 03:56:02;;;;;;;1.33;0.75;;;5.80;99.90;;;;;;4983218;28;20488;-80
2023/03/04 03:58:29;;;;;;;1.77;0.80;;;5.80;99.90;;;;;;5000292;28;20060;-80
2023/03/04 04:00:55;;;;;;;2.42;0.73;;;5.80;99.90;;;;;;5003563;28;20046;-80
2023/03/04 04:03:24;;;;;;;1.90;0.80;;;5.80;99.90;;;;;;4963130;28;20041;-80
2023/03/04 04:05:51;;;;;;;1.85;0.77;;;5.80;99.90;;;;;;4987829;28;20155;-80
2023/03/04 04:08:18;;;;;;;0.52;0.40;;;5.80;99.90;;;;;;4993205;28;20063;-80
2023/03/04 04:10:44;;;;;;;2.65;0.60;;;5.80;99.90;;;;;;4995265;28;20460;-80
2023/03/04 04:13:11;;;;;;;0.65;0.65;;;5.80;99.90;;;;;;4990632;28;20140;-80
2023/03/04 04:15:38;;;;;;;1.15;0.55;;;5.80;99.90;;;;;;5007819;28;20045;-80
2023/03/04 04:18:05;;;;;;;1.38;0.55;;;5.80;99.90;;;;;;4981463;28;20098;-80
2023/03/04 04:20:32;;;;;;;1.33;0.52;;;5.80;99.90;;;;;;4972587;28;20193;-81
2023/03/04 04:22:59;;;;;;;0.50;0.40;;;5.80;99.90;;;;;;4975457;28;20049;-80
2023/03/04 04:25:26;;;;;;;1.92;0.57;;;5.80;99.90;;;;;;4991626;28;20531;-80
2023/03/04 04:27:53;;;;;;;2.05;0.50;;;5.80;99.90;;;;;;4995909;28;20440;-80
2023/03/04 04:30:20;;;;;;;1.45;0.45;;;5.80;99.90;;;;;;4980930;28;20128;-80
2023/03/04 04:32:47;;;;;;;2.42;0.75;;;5.90;99.90;;;;;;4973965;28;20054;-80
2023/03/04 04:35:14;;;;;;;0.90;0.47;;;5.90;99.90;;;;;;4966963;28;20701;-80
2023/03/04 04:37:40;;;;;;;3.05;0.95;;;5.90;99.90;;;;;;4967381;28;20050;-81
2023/03/04 04:40:08;;;;;;;1.67;0.50;;;5.90;99.90;;;;;;4984188;28;20148;-80
2023/03/04 04:42:34;;;;;;;1.23;0.50;;;5.90;99.90;;;;;;4990106;28;20073;-80
2023/03/04 04:45:01;;;;;;;1.30;0.68;;;5.90;99.90;;;;;;4988023;28;20155;-80
2023/03/04 04:47:29;;;;;;;2.58;0.50;;;5.90;99.90;;;;;;4973533;28;20445;-80
2023/03/04 04:49:55;;;;;;;0.38;0.38;;;5.90;99.90;;;;;;5026485;28;20521;-81
2023/03/04 04:52:22;;;;;;;0.60;0.47;;;5.90;99.90;;;;;;5025894;28;20059;-81
2023/03/04 04:54:51;;;;;;;0.70;0.45;;;5.90;99.90;;;;;;5026045;28;20049;-81
2023/03/04 04:57:17;;;;;;;1.30;0.65;;;5.90;99.90;;;;;;5008914;28;20056;-80
2023/03/04 04:59:44;;;;;;;0.90;0.50;;;5.90;99.90;;;;;;5001506;28;20052;-80
2023/03/04 05:02:11;;;;;;;0.93;0.60;;;5.90;99.90;;;;;;4980630;28;20049;-81
2023/03/04 05:04:38;;;;;;;0.70;0.60;;;5.90;99.90;;;;;;4971315;28;20053;-80
2023/03/04 05:07:05;;;;;;;2.25;0.73;;;5.90;99.90;;;;;;4984235;28;20141;-80
2023/03/04 05:09:31;;;;;;;1.20;0.57;;;5.90;99.90;;;;;;5016123;28;20045;-80
2023/03/04 05:11:58;;;;;;;1.40;0.57;;;5.90;99.90;;;;;;5000453;28;20145;-80
2023/03/04 05:14:25;;;;;;;2.90;0.68;;;5.80;99.90;;;;;;4969151;28;20144;-80
2023/03/04 05:16:52;;;;;;;1.05;0.50;;;5.80;99.90;;;;;;4988338;28;20078;-80
2023/03/04 05:19:20;;;;;;;1.85;0.40;;;5.80;99.90;;;;;;4993728;28;20076;-81
2023/03/04 05:21:47;;;;;;;2.25;0.70;;;5.80;99.90;;;;;;5005942;28;20093;-80
2023/03/04 05:24:14;;;;;;;1.25;0.63;;;5.90;99.90;;;;;;4991490;28;20374;-80
2023/03/04 05:26:41;;;;;;;1.80;0.85;;;5.80;99.90;;;;;;4991854;28;20053;-80
2023/03/04 05:29:09;;;;;;;2.75;0.75;;;5.90;99.90;;;;;;5004744;28;20053;-80
2023/03/04 05:31:36;;;;;;;0.70;0.63;;;5.80;99.90;;;;;;5045674;28;20748;-81
2023/03/04 05:34:03;;;;;;;1.38;0.73;;;5.80;99.90;;;;;;4992767;28;20046;-80
2023/03/04 05:36:30;;;;;;;0.82;0.57;;;5.80;99.90;;;;;;4987110;28;20066;-80
2023/03/04 05:38:56;;;;;;;2.33;0.70;;;5.80;99.90;;;;;;4999043;28;20562;-80
2023/03/04 05:41:24;;;;;;;1.02;0.55;;;5.80;99.90;;;;;;5001217;28;20149;-80
2023/03/04 05:43:51;;;;;;;2.70;0.90;;;5.80;99.90;;;;;;4987860;28;20551;-80
2023/03/04 05:46:24;;;;;;;1.40;0.70;;;5.70;99.90;;;;;;5005146;28;20050;-80
2023/03/04 05:48:51;;;;;;;3.55;0.70;;;5.70;99.90;;;;;;5001447;28;20348;-80
2023/03/04 05:51:18;;;;;;;1.17;0.75;;;5.70;99.90;;;;;;4986390;28;20114;-80
2023/03/04 05:53:45;;;;;;;1.33;0.88;;;5.70;99.90;;;;;;5007234;28;20049;-80
2023/03/04 05:56:14;;;;;;;1.92;0.93;;;5.70;99.90;;;;;;5007074;28;20080;-80
2023/03/04 05:58:40;;;;;;;1.38;0.73;;;5.70;99.90;;;;;;5015976;28;20143;-80
2023/03/04 06:01:07;;;;;;;1.00;0.68;;;5.70;99.90;;;;;;5028315;28;20136;-80
2023/03/04 06:03:34;;;;;;;2.95;1.08;;;5.70;99.90;;;;;;4975162;28;20481;-80
2023/03/04 06:06:01;;;;;;;1.60;0.70;;;5.70;99.90;;;;;;4983569;28;20084;-80
2023/03/04 06:08:28;;;;;;;2.92;1.10;;;5.60;99.90;;;;;;4998043;28;20057;-80
2023/03/04 06:10:55;;;;;;;3.22;0.80;;;5.70;99.90;;;;;;5012987;28;20132;-80
2023/03/04 06:13:22;;;;;;;4.15;1.20;;;5.70;99.90;;;;;;5016762;28;20061;-80
2023/03/04 06:15:56;;;;;;;3.20;1.63;;;5.60;99.90;;;;;;5022793;28;20124;-79
2023/03/04 06:18:23;;;;;;;1.85;1.10;;;5.60;99.90;;;;;;5006491;28;20045;-80
2023/03/04 06:20:54;;;;;;;1.88;0.98;;;5.60;99.90;;;;;;4988646;28;20080;-80
2023/03/04 06:23:20;;;;;;;2.45;0.82;;;5.60;99.90;;;;;;4990273;28;20053;-80
2023/03/04 06:25:53;;;;;;;2.40;1.08;;;5.60;99.90;;;;;;4990130;28;20056;-80
2023/03/04 06:28:20;;;;;;;1.67;0.98;;;5.60;99.90;;;;;;4979186;28;20053;-80
2023/03/04 06:30:47;;;;;;;2.92;1.35;;;5.60;99.90;;;;;;5000887;28;20079;-80
2023/03/04 06:33:14;;;;;;;3.20;1.30;;;5.50;99.90;;;;;;4983850;28;20552;-81
2023/03/04 06:35:41;;;;;;;1.98;0.90;;;5.50;99.90;;;;;;5020829;28;20071;-79
2023/03/04 06:38:08;;;;;;;2.25;1.30;;;5.50;99.90;;;;;;5021338;28;20083;-80
2023/03/04 06:40:35;;;;;;;2.25;1.23;;;5.50;99.90;;;;;;4995770;28;20056;-80
2023/03/04 06:43:02;;;;;;;1.63;0.80;;;5.50;99.90;;;;;;5006653;28;20058;-80
2023/03/04 06:45:29;;;;;;;3.30;1.05;;;5.50;99.90;;;;;;4986556;28;20056;-80
2023/03/04 06:47:55;;;;;;;1.23;0.82;;;5.50;99.90;;;;;;5003931;28;20049;-80
2023/03/04 06:50:22;;;;;;;3.42;1.00;;;5.60;99.90;;;;;;5003456;28;20045;-80
2023/03/04 06:52:49;;;;;;;2.28;1.00;;;5.50;99.90;;;;;;4989564;28;20053;-80
2023/03/04 06:55:16;;;;;;;2.88;1.30;;;5.60;99.90;;;;;;4989357;28;20045;-80
2023/03/04 06:57:43;;;;;;;2.63;0.93;;;5.50;99.90;;;;;;5022166;28;20052;-81
2023/03/04 07:00:12;;;;;;;2.22;1.05;;;5.50;99.90;;;;;;4984195;28;20053;-81
2023/03/04 07:02:39;;;;;;;2.13;1.00;;;5.50;99.90;;;;;;5025588;28;20330;-80
2023/03/04 07:05:06;;;;;;;1.65;0.90;;;5.60;99.90;;;;;;5038036;28;20049;-79
2023/03/04 07:07:35;;;;;;;1.17;0.70;;;5.60;99.90;;;;;;5003032;28;20535;-80
2023/03/04 07:10:01;;;;;;;1.55;0.90;;;5.60;99.90;;;;;;5020898;28;20439;-80
2023/03/04 07:12:28;;;;;;;1.02;0.80;;;5.60;99.90;;;;;;4994829;28;20107;-80
2023/03/04 07:14:55;;;;;;;1.65;0.90;;;5.60;99.90;;;;;;5007629;28;20052;-80
2023/03/04 07:17:22;;;;;;;1.80;1.02;;;5.60;99.90;;;;;;4988962;28;20496;-80
2023/03/04 07:19:49;;;;;;;2.53;1.17;;;5.60;99.90;;;;;;4973061;28;20364;-80
2023/03/04 07:22:16;;;;;;;1.65;0.85;;;5.70;99.90;;;;;;4970706;28;20520;-80
2023/03/04 07:24:43;;;;;;;2.72;1.00;;;5.70;99.90;;;;;;4988280;28;20083;-80
2023/03/04 07:27:10;;;;;;;0.85;0.68;;;5.70;99.90;;;;;;4988146;28;20319;-80
2023/03/04 07:29:37;;;;;;;1.85;0.90;;;5.70;99.90;;;;;;4971834;28;20054;-80
2023/03/04 07:32:08;;;;;;;2.72;0.98;;;5.60;99.90;;;;;;4976771;28;20430;-80
2023/03/04 07:34:35;;;;;;;1.45;0.80;;;5.60;99.90;;;;;;4992238;28;20152;-81
2023/03/04 07:37:02;;;;;;;2.85;1.17;;;5.60;99.90;;;;;;5000337;28;20065;-80
2023/03/04 07:39:29;;;;;;;1.73;1.10;;;5.60;99.90;;;;;;4967735;28;20056;-82
2023/03/04 07:41:56;;;;;;;1.45;1.25;;;5.60;99.90;;;;;;4973674;28;20111;-80
2023/03/04 07:44:23;;;;;;;1.52;0.77;;;5.70;99.90;;;;;;4974708;28;20642;-82
2023/03/04 07:46:50;;;;;;;3.70;1.38;;;5.70;99.90;;;;;;4982259;28;20180;-81
2023/03/04 07:49:17;;;;;;;4.43;1.55;;;5.60;99.90;;;;;;4973761;28;20052;-80
2023/03/04 07:51:44;;;;;;;4.13;1.10;;;5.60;99.90;;;;;;5002375;28;20220;-80
2023/03/04 07:54:11;;;;;;;1.65;0.90;;;5.60;99.90;;;;;;5004036;28;20052;-80
2023/03/04 07:56:38;;;;;;;6.18;1.63;;;5.50;99.90;;;;;;4985822;28;20122;-80
2023/03/04 07:59:05;;;;;;;4.43;1.83;;;5.50;99.90;;;;;;4995615;28;20053;-81
2023/03/04 08:01:34;;;;;;;6.97;1.70;;;5.40;99.90;;;;;;4972728;28;20064;-81
2023/03/04 08:04:02;;;;;;;5.32;1.55;;;5.30;99.90;;;;;;4974394;28;20487;-81
2023/03/04 08:06:29;;;;;;;4.63;1.10;;;5.40;99.90;;;;;;4983778;28;20054;-80
2023/03/04 08:08:57;;;;;;;1.80;1.00;;;5.50;99.90;;;;;;5028160;28;20052;-80
2023/03/04 08:11:24;;;;;;;3.08;0.90;;;5.60;99.90;;;;;;4992495;28;20076;-81
2023/03/04 08:13:53;;;;;;;1.52;0.70;;;5.60;99.90;;;;;;4985624;28;20436;-80
2023/03/04 08:16:20;;;;;;;2.72;1.20;;;5.60;99.90;;;;;;4958724;28;20049;-81
2023/03/04 08:18:49;;;;;;;1.38;0.90;;;5.70;99.90;;;;;;4974289;28;20068;-81
2023/03/04 08:21:18;;;;;;;1.98;0.95;;;5.70;99.90;;;;;;4963915;28;20041;-80
2023/03/04 08:23:45;;;;;;;2.28;1.20;;;5.70;99.90;;;;;;4986918;28;20085;-80
2023/03/04 08:26:23;;;;;;;4.55;1.20;;;5.70;99.90;;;;;;5001417;28;20140;-80
2023/03/04 08:28:51;;;;;;;3.60;1.15;;;5.70;99.90;;;;;;5010705;28;20045;-80
2023/03/04 08:31:18;;;;;;;4.55;1.40;;;5.70;99.90;;;;;;4970441;28;20050;-80
2023/03/04 08:33:45;;;;;;;3.75;1.25;;;5.80;99.90;;;;;;4981979;28;20052;-81
2023/03/04 08:36:13;;;;;;;3.78;1.20;;;5.80;99.90;;;;;;4968704;28;20145;-81
2023/03/04 08:38:39;;;;;;;4.75;1.40;;;5.80;99.90;;;;;;4972595;28;20359;-80
2023/03/04 08:41:06;;;;;;;2.50;1.05;;;5.90;99.90;;;;;;4968302;28;20374;-80
2023/03/04 08:43:33;;;;;;;2.50;1.30;;;5.90;99.90;;;;;;5015987;28;20392;-82
2023/03/04 08:46:00;;;;;;;2.83;1.13;;;5.90;99.90;;;;;;4983607;28;20046;-81
2023/03/04 08:48:27;;;;;;;2.75;1.30;;;6.10;99.90;;;;;;4995972;28;20068;-81
2023/03/04 08:50:55;;;;;;;3.78;1.88;;;6.20;99.90;;;;;;4973654;28;20318;-81
2023/03/04 08:53:22;;;;;;;4.65;1.38;;;6.20;99.90;;;;;;4983534;28;20081;-81
2023/03/04 08:55:49;;;;;;;2.10;0.98;;;6.20;99.90;;;;;;4994297;28;20699;-81
2023/03/04 08:58:16;;;;;;;1.25;0.90;;;6.30;99.90;;;;;;5003206;28;20543;-81
2023/03/04 09:00:47;;;;;;;4.13;1.30;;;6.40;99.90;;;;;;4988529;28;20065;-81
2023/03/04 09:03:14;;;;;;;4.63;1.20;;;6.30;99.90;;;;;;4972867;28;20532;-81
2023/03/04 09:05:41;;;;;;;2.53;0.90;;;6.20;99.90;;;;;;4980298;28;20353;-81
2023/03/04 09:08:08;;;;;;;2.67;1.20;;;6.30;99.90;;;;;;4986578;28;20050;-81
2023/03/04 09:10:35;;;;;;;3.85;1.08;;;6.50;99.90;;;;;;4974519;28;20119;-80
2023/03/04 09:13:02;;;;;;;0.70;0.60;;;6.60;99.90;;;;;;4996291;28;20084;-83
2023/03/04 09:15:29;;;;;;;1.10;0.73;;;6.80;99.90;;;;;;4978162;28;20472;-82
2023/03/04 09:17:55;;;;;;;2.97;0.75;;;7.00;99.90;;;;;;4981612;28;20072;-81
2023/03/04 09:20:22;;;;;;;1.30;0.60;;;7.00;99.90;;;;;;4981231;28;20056;-81
2023/03/04 09:22:49;;;;;;;1.60;0.70;;;7.00;99.90;;;;;;4973602;28;20168;-81
2023/03/04 09:25:16;;;;;;;3.15;1.17;;;6.90;99.90;;;;;;4952818;28;21039;-81
2023/03/04 09:27:44;;;;;;;1.25;0.80;;;6.90;99.90;;;;;;4971260;28;20057;-81
2023/03/04 09:30:11;;;;;;;1.50;0.60;;;7.00;99.90;;;;;;5019429;28;20045;-80
2023/03/04 09:32:39;;;;;;;2.53;0.90;;;7.20;99.90;;;;;;5009876;28;20053;-82
2023/03/04 09:35:07;;;;;;;2.17;1.02;;;7.20;99.90;;;;;;4968934;28;20157;-82
2023/03/04 09:37:33;;;;;;;1.60;0.90;;;7.20;99.90;;;;;;4979103;28;20042;-85
2023/03/04 09:40:01;;;;;;;5.38;1.05;;;7.30;99.90;;;;;;5029539;28;20057;-81
2023/03/04 09:42:32;;;;;;;2.20;0.85;;;7.40;99.90;;;;;;5020321;28;20094;-81
2023/03/04 09:44:59;;;;;;;2.53;1.08;;;7.40;99.90;;;;;;4998730;28;20057;-81
2023/03/04 09:47:25;;;;;;;1.23;0.70;;;7.50;99.90;;;;;;5016836;28;20056;-82
2023/03/04 09:50:00;;;;;;;1.33;0.63;;;7.50;99.90;;;;;;5021017;28;20396;-82
2023/03/04 09:53:05;;;;;;;2.60;1.15;;;7.50;99.90;;;;;;5003865;28;20091;-80
2023/03/04 09:55:35;;;;;;;3.10;1.20;;;7.40;99.90;;;;;;5018947;28;20053;-79
2023/03/04 09:58:29;;;;;;;6.47;1.33;;;7.30;99.90;;;;;;5017688;28;20084;-82
2023/03/04 10:01:03;;;;;;;1.83;1.10;;;7.40;99.90;;;;;;5001720;28;20572;-81
2023/03/04 10:03:52;;;;;;;1.45;0.88;;;7.40;99.90;;;;;;4999599;28;20049;-82
2023/03/04 10:06:20;;;;;;;3.75;1.10;;;7.50;99.90;;;;;;4992065;28;20053;-85
2023/03/04 10:08:56;;;;;;;2.75;1.30;;;7.40;99.90;;;;;;4989283;28;20480;-81
2023/03/04 10:11:40;;;;;;;5.90;1.92;;;7.30;99.90;;;;;;4966528;28;20049;-81
2023/03/04 10:14:37;;;;;;;2.42;0.95;;;7.20;99.90;;;;;;5012538;28;20041;-82
2023/03/04 10:17:12;;;;;;;2.67;1.00;;;7.10;99.90;;;;;;4954403;28;20053;-82
2023/03/04 10:19:54;;;;;;;1.73;0.88;;;7.00;99.90;;;;;;4999247;28;20598;-83
2023/03/04 10:22:35;;;;;;;1.63;0.65;;;7.10;99.90;;;;;;4993229;28;20091;-81
2023/03/04 10:25:28;;;;;;;1.48;0.68;;;7.10;99.90;;;;;;5006099;28;20089;-79
2023/03/04 10:28:03;;;;;;;1.42;0.73;;;7.30;99.90;;;;;;4989778;28;20076;-80
2023/03/04 10:30:39;;;;;;;3.97;0.95;;;7.50;99.90;;;;;;5005094;28;20265;-79
2023/03/04 10:33:14;;;;;;;1.20;0.68;;;7.60;99.90;;;;;;5016004;28;20111;-79
2023/03/04 10:35:47;;;;;;;1.88;0.77;;;7.80;99.90;;;;;;4992053;28;20041;-79
2023/03/04 10:38:14;;;;;;;2.25;1.13;;;7.90;99.90;;;;;;4988268;28;20045;-80
2023/03/04 10:40:41;;;;;;;1.77;0.90;;;8.00;99.90;;;;;;5019235;28;20061;-80
2023/03/04 10:43:15;;;;;;;2.10;1.13;;;8.00;99.90;;;;;;5000617;28;20045;-80
2023/03/04 10:45:44;;;;;;;2.67;1.17;;;8.00;99.90;;;;;;5008734;28;20521;-80
2023/03/04 10:48:26;;;;;;;1.77;0.80;;;8.00;99.90;;;;;;5037545;28;20955;-79
2023/03/04 10:50:53;;;;;;;1.80;1.10;;;8.10;99.90;;;;;;4992532;28;20212;-80
2023/03/04 10:53:32;;;;;;;3.08;1.48;;;8.00;99.90;;;;;;5016299;28;20045;-79
2023/03/04 10:55:59;;;;;;;2.72;1.30;;;8.00;99.90;;;;;;5005026;28;20057;-82
2023/03/04 10:58:26;;;;;;;1.63;1.30;;;7.90;99.90;;;;;;5007288;28;20053;-79
2023/03/04 11:01:02;;;;;;;4.10;1.60;;;7.80;99.90;;;;;;5030140;28;20076;-83
2023/03/04 11:03:31;;;;;;;2.90;1.45;;;7.70;99.90;;;;;;5019284;28;20092;-85
2023/03/04 11:06:04;;;;;;;1.70;1.15;;;7.70;99.90;;;;;;5021332;28;20053;-83
2023/03/04 11:08:31;;;;;;;2.13;1.42;;;7.80;99.90;;;;;;5025359;28;20064;-86
2023/03/04 11:10:58;;;;;;;2.15;1.38;;;7.90;99.90;;;;;;5010024;28;20528;-87
2023/03/04 11:13:25;;;;;;;3.33;1.92;;;8.00;99.90;;;;;;5025609;28;20079;-86
2023/03/04 11:16:00;;;;;;;2.92;1.80;;;8.20;99.90;;;;;;5004222;28;20427;-85
2023/03/04 11:18:49;;;;;;;3.47;1.70;;;8.30;99.90;;;;;;4991070;28;20132;-85
2023/03/04 11:21:24;;;;;;;3.50;2.17;;;8.20;99.90;;;;;;5023219;28;20048;-86
2023/03/04 11:23:54;;;;;;;3.20;2.78;;;8.10;99.90;;;;;;5007421;28;20465;-78
2023/03/04 11:26:59;;;;;;;3.95;3.03;;;8.00;99.90;;;;;;4982947;28;20125;-78
2023/03/04 11:29:30;;;;;;;2.65;2.20;;;8.00;99.90;;;;;;4988491;28;20136;-85
2023/03/04 11:32:00;;;;;;;2.97;2.15;;;7.90;99.90;;;;;;5005424;28;20477;-85
2023/03/04 11:34:35;;;;;;;3.40;2.13;;;7.80;99.90;;;;;;5021659;28;20061;-84
2023/03/04 11:37:12;;;;;;;3.08;1.85;;;7.80;99.90;;;;;;5005042;28;20136;-83
2023/03/04 11:39:43;;;;;;;4.40;2.67;;;7.90;99.90;;;;;;4995284;28;20087;-85
2023/03/04 11:42:29;;;;;;;4.47;2.83;;;8.00;99.90;;;;;;4996681;28;20046;-84
2023/03/04 11:44:56;;;;;;;2.10;1.90;;;8.10;99.90;;;;;;5024778;28;20072;-84
2023/03/04 11:47:45;;;;;;;2.97;2.25;;;8.30;99.90;;;;;;4986866;28;20247;-84
2023/03/04 11:50:33;;;;;;;2.30;1.73;;;8.30;99.90;;;;;;5000501;28;20050;-84
2023/03/04 11:53:12;;;;;;;3.28;1.38;;;8.30;99.90;;;;;;5001961;28;20082;-83
2023/03/04 11:55:46;;;;;;;2.90;1.60;;;8.20;99.90;;;;;;5017617;28;20045;-83
2023/03/04 11:58:31;;;;;;;;;;;8.20;99.90;;;;;;4994406;28;20122;-84
2023/03/04 12:01:21;;;;;;;2.55;1.80;;;8.30;99.90;;;;;;5008776;28;20377;-83
2023/03/04 12:03:48;;;;;;;1.65;1.08;;;8.40;99.90;;;;;;5010781;28;20068;-82
2023/03/04 12:06:25;;;;;;;3.72;2.15;;;8.40;99.90;;;;;;5022789;28;20069;-82
2023/03/04 12:09:18;;;;;;;2.40;1.95;;;8.40;99.90;;;;;;5022053;28;20132;-85
2023/03/04 12:12:11;;;;;;;3.88;2.20;;;8.20;99.90;;;;;;4965421;28;20057;-80
2023/03/04 12:14:43;;;;;;;5.47;2.22;;;8.20;99.90;;;;;;5016883;28;20404;-81
2023/03/04 12:17:25;;;;;;;2.80;2.10;;;8.10;99.90;;;;;;4987796;28;20212;-85
2023/03/04 12:20:26;;;;;;;4.07;1.77;;;8.00;99.90;;;;;;4668127;28;10000517;-81
2023/03/04 12:23:00;;;;;;;3.10;1.55;;;8.00;99.90;;;;;;4993305;28;20055;-90
2023/03/04 12:26:03;;;;;;;2.40;1.80;;;8.00;99.90;;;;;;5010115;28;20084;-89
2023/03/04 12:28:50;;;;;;;1.45;1.20;;;8.00;99.90;;;;;;5020812;28;20473;-88
2023/03/04 12:31:36;;;;;;;1.60;1.20;;;8.10;99.90;;;;;;5018086;28;20541;-89
2023/03/04 12:34:21;;;;;;;3.40;2.20;;;8.10;99.90;;;;;;5004942;28;20283;-83
2023/03/04 12:36:51;;;;;;;4.25;1.80;;;8.10;99.90;;;;;;4985127;28;20053;-79
2023/03/04 12:39:41;;;;;;;1.75;1.35;;;8.00;99.90;;;;;;5013641;28;20055;-86
2023/03/04 12:42:11;;;;;;;1.60;1.35;;;7.90;99.90;;;;;;5022092;28;20077;-86
2023/03/04 12:45:16;;;;;;;2.15;1.33;;;7.90;99.90;;;;;;5021590;28;20434;-86
2023/03/04 12:48:05;;;;;;;1.80;1.30;;;7.90;99.90;;;;;;5008214;28;20513;-86
2023/03/04 12:50:50;;;;;;;2.42;1.98;;;7.80;99.90;;;;;;5002705;28;20063;-87
2023/03/04 12:53:28;;;;;;;2.58;1.35;;;7.90;99.90;;;;;;5001377;28;20053;-87
2023/03/04 12:55:56;;;;;;;3.08;1.30;;;7.90;99.90;;;;;;5018577;28;20477;-86
2023/03/04 12:58:27;;;;;;;2.22;1.48;;;8.00;99.90;;;;;;5002205;28;20085;-87
2023/03/04 13:01:17;;;;;;;1.10;0.80;;;8.20;99.90;;;;;;5001391;28;20053;-86
2023/03/04 13:04:08;;;;;;;2.15;1.20;;;8.40;99.90;;;;;;5008136;28;20048;-86
2023/03/04 13:06:55;;;;;;;1.30;1.10;;;8.50;99.90;;;;;;4983086;28;20199;-87
2023/03/04 13:09:30;;;;;;;1.63;1.38;;;8.50;99.90;;;;;;4989240;28;20049;-86
2023/03/04 13:12:04;;;;;;;1.63;1.40;;;8.50;99.90;;;;;;4985653;28;20131;-87